Fort Worth Nas Jrb/Carswell field
KNFW : rendu visible

Aérodrome :











RETROUVEZ-NOUS SUR...

 
LOGIN :

S'inscrire | Disclaimer

   EN    FR    IT 

 









Légende :    VFR   VFR Marginal   IFR   IFR Intensif   IFR Très Intensif
Visi : 
Plafond : 
>= 8 km
>= 3000ft
5 à 8 km
1000 à 3000 ft
1500m à 5 km
500 à 1000 ft
800 à 1500m
200 à 500 ft
< 800m
< 200 ft
Symboles :   Orages  Brouillard  Fortes neiges  Fortes précipitations  Vent > 20 kt






- Altitude de l'aérodrome : 650 ft


KNFW - Fort Worth Nas Jrb/Carswell field

DERNIER METAR :
  • 131052Z 18008KT 10SM FEW250 24/21 A3013 RMK AO2 SLP185 T02390206 $

METARs EXPIRÉS :
  • 130952Z AUTO 19011KT 10SM CLR 24/21 A3011 RMK AO2 SLP179 T02440206 $
  • 130852Z AUTO 19008KT 10SM CLR 24/21 A3011 RMK AO2 SLP177 T02440211 56003 $
  • 130752Z AUTO 17007KT 10SM CLR 25/21 A3011 RMK AO2 SLP177 T02500211 $
  • 130652Z AUTO 17008KT 10SM CLR 26/21 A3011 RMK AO2 SLP179 T02560211 $

TAF AMD TAF KNFW
Valide du 13 à 08h jusqu'au 14 à 07h UTC


1308/1407 VRB06KT 9999 FEW070 QNH3008INS
FM131800 17010KT 9999 SCT070 QNH3004INS AUTOMATED SENSOR METWATCH 1308 TIL 1311 TX37/1322Z TN24/1312Z AMD 0800 FN00199
FIR KZFW / Amérique du Nord



MET'MAP, la Météo Aéronautique d'un coup d'oeil ! - Copyright ORBIFLY Décembre 2007 - Disclaimer

ORBIFLY MET'MAP TEAM :

Programmation & Développement : Alexandra Zaïnal
Sur une idée originale de : Baudouin d'Aumeries
Soutien technique & logistique : Manuel Goepfert
Assistance : Marc-Olivier Méhu




SOURCES & CREDITS :

   NOAA       Earth
Advisory